sensor_id;sensor_type;location;lat;lon;timestamp;temperature;humidity
11005;DHT22;5555;59.622;16.556;2023-10-13T00:01:58;4.80;99.90
11005;DHT22;5555;59.622;16.556;2023-10-13T00:04:28;4.80;99.90
11005;DHT22;5555;59.622;16.556;2023-10-13T00:06:55;4.80;99.90
11005;DHT22;5555;59.622;16.556;2023-10-13T00:09:24;4.80;99.90
11005;DHT22;5555;59.622;16.556;2023-10-13T00:11:54;4.80;99.90
11005;DHT22;5555;59.622;16.556;2023-10-13T00:14:20;4.90;99.90
11005;DHT22;5555;59.622;16.556;2023-10-13T00:16:47;4.90;99.90
11005;DHT22;5555;59.622;16.556;2023-10-13T00:19:33;5.00;99.90
11005;DHT22;5555;59.622;16.556;2023-10-13T00:22:25;5.20;99.90
11005;DHT22;5555;59.622;16.556;2023-10-13T00:24:53;5.20;99.90
11005;DHT22;5555;59.622;16.556;2023-10-13T00:27:24;5.30;99.90
11005;DHT22;5555;59.622;16.556;2023-10-13T00:30:06;5.40;99.90
11005;DHT22;5555;59.622;16.556;2023-10-13T00:32:52;5.60;99.90
11005;DHT22;5555;59.622;16.556;2023-10-13T00:35:22;5.70;99.90
11005;DHT22;5555;59.622;16.556;2023-10-13T00:37:54;5.80;99.90
11005;DHT22;5555;59.622;16.556;2023-10-13T00:40:21;5.70;99.90
11005;DHT22;5555;59.622;16.556;2023-10-13T00:42:55;5.80;99.90
11005;DHT22;5555;59.622;16.556;2023-10-13T00:45:31;5.90;99.90
11005;DHT22;5555;59.622;16.556;2023-10-13T00:47:59;5.90;99.90
11005;DHT22;5555;59.622;16.556;2023-10-13T00:50:27;5.90;99.90
11005;DHT22;5555;59.622;16.556;2023-10-13T00:52:55;5.90;99.90
11005;DHT22;5555;59.622;16.556;2023-10-13T00:55:21;5.90;99.90
11005;DHT22;5555;59.622;16.556;2023-10-13T00:57:55;5.90;99.90
11005;DHT22;5555;59.622;16.556;2023-10-13T01:00:23;5.90;99.90
11005;DHT22;5555;59.622;16.556;2023-10-13T01:02:54;5.80;99.90
11005;DHT22;5555;59.622;16.556;2023-10-13T01:05:25;5.80;99.90
11005;DHT22;5555;59.622;16.556;2023-10-13T01:07:51;5.70;99.90
11005;DHT22;5555;59.622;16.556;2023-10-13T01:10:20;5.80;99.90
11005;DHT22;5555;59.622;16.556;2023-10-13T01:12:51;5.80;99.90
11005;DHT22;5555;59.622;16.556;2023-10-13T01:15:18;5.80;99.90
11005;DHT22;5555;59.622;16.556;2023-10-13T01:17:47;5.80;99.90
11005;DHT22;5555;59.622;16.556;2023-10-13T01:20:16;5.70;99.90
11005;DHT22;5555;59.622;16.556;2023-10-13T01:23:10;5.70;99.90
11005;DHT22;5555;59.622;16.556;2023-10-13T01:25:43;5.60;99.90
11005;DHT22;5555;59.622;16.556;2023-10-13T01:28:09;5.50;99.90
11005;DHT22;5555;59.622;16.556;2023-10-13T01:30:34;5.50;99.90
11005;DHT22;5555;59.622;16.556;2023-10-13T01:33:04;5.50;99.90
11005;DHT22;5555;59.622;16.556;2023-10-13T01:35:29;5.40;99.90
11005;DHT22;5555;59.622;16.556;2023-10-13T01:38:02;5.30;99.90
11005;DHT22;5555;59.622;16.556;2023-10-13T01:40:28;5.40;99.90
11005;DHT22;5555;59.622;16.556;2023-10-13T01:42:59;5.40;99.90
11005;DHT22;5555;59.622;16.556;2023-10-13T01:45:24;5.30;99.90
11005;DHT22;5555;59.622;16.556;2023-10-13T01:47:54;5.30;99.90
11005;DHT22;5555;59.622;16.556;2023-10-13T01:50:20;5.20;99.90
11005;DHT22;5555;59.622;16.556;2023-10-13T01:52:53;5.20;99.90
11005;DHT22;5555;59.622;16.556;2023-10-13T01:55:25;5.10;99.90
11005;DHT22;5555;59.622;16.556;2023-10-13T01:57:51;5.10;99.90
11005;DHT22;5555;59.622;16.556;2023-10-13T02:00:18;5.10;99.90
11005;DHT22;5555;59.622;16.556;2023-10-13T02:02:46;5.10;99.90
11005;DHT22;5555;59.622;16.556;2023-10-13T02:05:15;5.10;99.90
11005;DHT22;5555;59.622;16.556;2023-10-13T02:07:42;5.00;99.90
11005;DHT22;5555;59.622;16.556;2023-10-13T02:10:11;5.00;99.90
11005;DHT22;5555;59.622;16.556;2023-10-13T02:12:37;4.90;99.90
11005;DHT22;5555;59.622;16.556;2023-10-13T02:15:12;4.80;99.90
11005;DHT22;5555;59.622;16.556;2023-10-13T02:17:47;4.80;99.90
11005;DHT22;5555;59.622;16.556;2023-10-13T02:20:17;4.70;99.90
11005;DHT22;5555;59.622;16.556;2023-10-13T02:22:44;4.70;99.90
11005;DHT22;5555;59.622;16.556;2023-10-13T02:25:16;4.70;99.90
11005;DHT22;5555;59.622;16.556;2023-10-13T02:27:43;4.60;99.90
11005;DHT22;5555;59.622;16.556;2023-10-13T02:30:13;4.60;99.90
11005;DHT22;5555;59.622;16.556;2023-10-13T02:32:40;4.50;99.90
11005;DHT22;5555;59.622;16.556;2023-10-13T02:35:09;4.50;99.90
11005;DHT22;5555;59.622;16.556;2023-10-13T02:37:41;4.40;99.90
11005;DHT22;5555;59.622;16.556;2023-10-13T02:40:20;4.40;99.90
11005;DHT22;5555;59.622;16.556;2023-10-13T02:42:48;4.30;99.90
11005;DHT22;5555;59.622;16.556;2023-10-13T02:45:14;4.40;99.90
11005;DHT22;5555;59.622;16.556;2023-10-13T02:47:40;4.30;99.90
11005;DHT22;5555;59.622;16.556;2023-10-13T02:50:09;4.40;99.90
11005;DHT22;5555;59.622;16.556;2023-10-13T02:52:38;4.40;99.90
11005;DHT22;5555;59.622;16.556;2023-10-13T02:55:07;4.40;99.90
11005;DHT22;5555;59.622;16.556;2023-10-13T02:57:36;4.50;99.90
11005;DHT22;5555;59.622;16.556;2023-10-13T03:00:01;4.40;99.90
11005;DHT22;5555;59.622;16.556;2023-10-13T03:02:41;4.40;99.90
11005;DHT22;5555;59.622;16.556;2023-10-13T03:05:19;4.30;99.90
11005;DHT22;5555;59.622;16.556;2023-10-13T03:07:44;4.30;99.90
11005;DHT22;5555;59.622;16.556;2023-10-13T03:10:10;4.30;99.90
11005;DHT22;5555;59.622;16.556;2023-10-13T03:12:37;4.30;99.90
11005;DHT22;5555;59.622;16.556;2023-10-13T03:15:03;4.30;99.90
11005;DHT22;5555;59.622;16.556;2023-10-13T03:17:43;4.30;99.90
11005;DHT22;5555;59.622;16.556;2023-10-13T03:20:17;4.20;99.90
11005;DHT22;5555;59.622;16.556;2023-10-13T03:22:52;4.20;99.90
11005;DHT22;5555;59.622;16.556;2023-10-13T03:25:18;4.10;99.90
11005;DHT22;5555;59.622;16.556;2023-10-13T03:28:08;4.20;99.90
11005;DHT22;5555;59.622;16.556;2023-10-13T03:30:37;4.30;99.90
11005;DHT22;5555;59.622;16.556;2023-10-13T03:33:06;4.30;99.90
11005;DHT22;5555;59.622;16.556;2023-10-13T03:35:35;4.30;99.90
11005;DHT22;5555;59.622;16.556;2023-10-13T03:38:07;4.40;99.90
11005;DHT22;5555;59.622;16.556;2023-10-13T03:40:42;4.50;99.90
11005;DHT22;5555;59.622;16.556;2023-10-13T03:43:14;4.60;99.90
11005;DHT22;5555;59.622;16.556;2023-10-13T03:45:45;4.60;99.90
11005;DHT22;5555;59.622;16.556;2023-10-13T03:48:18;4.60;99.90
11005;DHT22;5555;59.622;16.556;2023-10-13T03:53:41;4.60;99.90
11005;DHT22;5555;59.622;16.556;2023-10-13T03:56:24;4.50;99.90
11005;DHT22;5555;59.622;16.556;2023-10-13T03:59:06;4.40;99.90
11005;DHT22;5555;59.622;16.556;2023-10-13T04:01:32;4.30;99.90
11005;DHT22;5555;59.622;16.556;2023-10-13T04:04:17;4.20;99.90
11005;DHT22;5555;59.622;16.556;2023-10-13T04:07:02;4.20;99.90
11005;DHT22;5555;59.622;16.556;2023-10-13T04:09:36;4.20;99.90
11005;DHT22;5555;59.622;16.556;2023-10-13T04:12:06;4.10;99.90
11005;DHT22;5555;59.622;16.556;2023-10-13T04:14:44;4.00;99.90
11005;DHT22;5555;59.622;16.556;2023-10-13T04:17:28;4.00;99.90
11005;DHT22;5555;59.622;16.556;2023-10-13T04:19:58;4.10;99.90
11005;DHT22;5555;59.622;16.556;2023-10-13T04:22:35;4.20;99.90
11005;DHT22;5555;59.622;16.556;2023-10-13T04:25:25;4.30;99.90
11005;DHT22;5555;59.622;16.556;2023-10-13T04:28:08;4.20;99.90
11005;DHT22;5555;59.622;16.556;2023-10-13T04:30:50;4.10;99.90
11005;DHT22;5555;59.622;16.556;2023-10-13T04:33:22;4.10;99.90
11005;DHT22;5555;59.622;16.556;2023-10-13T04:36:03;4.10;99.90
11005;DHT22;5555;59.622;16.556;2023-10-13T04:38:49;4.10;99.90
11005;DHT22;5555;59.622;16.556;2023-10-13T04:44:16;3.90;99.90
11005;DHT22;5555;59.622;16.556;2023-10-13T04:46:48;3.80;99.90
11005;DHT22;5555;59.622;16.556;2023-10-13T04:49:14;3.70;99.90
11005;DHT22;5555;59.622;16.556;2023-10-13T04:52:05;3.80;99.90
11005;DHT22;5555;59.622;16.556;2023-10-13T04:54:43;3.80;99.90
11005;DHT22;5555;59.622;16.556;2023-10-13T04:57:35;3.60;99.90
11005;DHT22;5555;59.622;16.556;2023-10-13T05:00:13;3.60;99.90
11005;DHT22;5555;59.622;16.556;2023-10-13T05:02:46;3.60;99.90
11005;DHT22;5555;59.622;16.556;2023-10-13T05:05:44;3.50;99.90
11005;DHT22;5555;59.622;16.556;2023-10-13T05:08:28;3.50;99.90
11005;DHT22;5555;59.622;16.556;2023-10-13T05:11:12;3.40;99.90
11005;DHT22;5555;59.622;16.556;2023-10-13T05:13:56;3.50;99.90
11005;DHT22;5555;59.622;16.556;2023-10-13T05:16:40;3.50;99.90
11005;DHT22;5555;59.622;16.556;2023-10-13T05:19:24;3.50;99.90
11005;DHT22;5555;59.622;16.556;2023-10-13T05:22:08;3.50;99.90
11005;DHT22;5555;59.622;16.556;2023-10-13T05:24:52;3.40;99.90
11005;DHT22;5555;59.622;16.556;2023-10-13T05:27:36;3.30;99.90
11005;DHT22;5555;59.622;16.556;2023-10-13T05:30:20;3.30;99.90
11005;DHT22;5555;59.622;16.556;2023-10-13T05:33:18;3.20;99.90
11005;DHT22;5555;59.622;16.556;2023-10-13T05:36:03;3.20;99.90
11005;DHT22;5555;59.622;16.556;2023-10-13T05:38:53;3.20;99.90
11005;DHT22;5555;59.622;16.556;2023-10-13T05:41:37;3.10;99.90
11005;DHT22;5555;59.622;16.556;2023-10-13T05:44:21;3.10;99.90
11005;DHT22;5555;59.622;16.556;2023-10-13T05:47:07;3.20;99.90
11005;DHT22;5555;59.622;16.556;2023-10-13T05:49:58;3.30;99.90
11005;DHT22;5555;59.622;16.556;2023-10-13T05:52:42;3.30;99.90
11005;DHT22;5555;59.622;16.556;2023-10-13T05:55:30;3.30;99.90
11005;DHT22;5555;59.622;16.556;2023-10-13T05:58:15;3.30;99.90
11005;DHT22;5555;59.622;16.556;2023-10-13T06:01:00;3.40;99.90
11005;DHT22;5555;59.622;16.556;2023-10-13T06:03:44;3.30;99.90
11005;DHT22;5555;59.622;16.556;2023-10-13T06:06:28;3.40;99.90
11005;DHT22;5555;59.622;16.556;2023-10-13T06:09:13;3.40;99.90
11005;DHT22;5555;59.622;16.556;2023-10-13T06:11:57;3.40;99.90
11005;DHT22;5555;59.622;16.556;2023-10-13T06:14:46;3.40;99.90
11005;DHT22;5555;59.622;16.556;2023-10-13T06:17:30;3.40;99.90
11005;DHT22;5555;59.622;16.556;2023-10-13T06:20:14;3.40;99.90
11005;DHT22;5555;59.622;16.556;2023-10-13T06:22:58;3.50;99.90
11005;DHT22;5555;59.622;16.556;2023-10-13T06:25:42;3.70;99.90
11005;DHT22;5555;59.622;16.556;2023-10-13T06:28:26;3.80;99.90
11005;DHT22;5555;59.622;16.556;2023-10-13T06:31:08;4.00;99.90
11005;DHT22;5555;59.622;16.556;2023-10-13T06:33:37;4.20;99.90
11005;DHT22;5555;59.622;16.556;2023-10-13T06:36:10;4.40;99.90
11005;DHT22;5555;59.622;16.556;2023-10-13T06:38:36;4.60;99.90
11005;DHT22;5555;59.622;16.556;2023-10-13T06:41:03;4.80;99.90
11005;DHT22;5555;59.622;16.556;2023-10-13T06:43:34;5.00;99.90
11005;DHT22;5555;59.622;16.556;2023-10-13T06:46:10;5.20;99.90
11005;DHT22;5555;59.622;16.556;2023-10-13T06:48:42;5.40;99.90
11005;DHT22;5555;59.622;16.556;2023-10-13T06:51:09;5.50;99.90
11005;DHT22;5555;59.622;16.556;2023-10-13T06:53:46;5.70;99.90
11005;DHT22;5555;59.622;16.556;2023-10-13T06:56:16;5.90;99.90
11005;DHT22;5555;59.622;16.556;2023-10-13T06:58:48;6.00;99.90
11005;DHT22;5555;59.622;16.556;2023-10-13T07:01:14;6.20;99.90
11005;DHT22;5555;59.622;16.556;2023-10-13T07:03:48;6.40;99.90
11005;DHT22;5555;59.622;16.556;2023-10-13T07:06:19;6.50;99.90
11005;DHT22;5555;59.622;16.556;2023-10-13T07:08:48;6.50;99.90
11005;DHT22;5555;59.622;16.556;2023-10-13T07:11:24;6.60;99.90
11005;DHT22;5555;59.622;16.556;2023-10-13T07:14:02;6.60;99.90
11005;DHT22;5555;59.622;16.556;2023-10-13T07:16:56;6.70;99.90
11005;DHT22;5555;59.622;16.556;2023-10-13T07:19:26;6.80;99.90
11005;DHT22;5555;59.622;16.556;2023-10-13T07:22:01;6.80;99.90
11005;DHT22;5555;59.622;16.556;2023-10-13T07:24:46;6.90;99.90
11005;DHT22;5555;59.622;16.556;2023-10-13T07:27:19;7.00;99.90
11005;DHT22;5555;59.622;16.556;2023-10-13T07:29:53;7.10;99.90
11005;DHT22;5555;59.622;16.556;2023-10-13T07:32:31;7.20;99.90
11005;DHT22;5555;59.622;16.556;2023-10-13T07:34:59;7.20;99.90
11005;DHT22;5555;59.622;16.556;2023-10-13T07:37:35;7.30;99.90
11005;DHT22;5555;59.622;16.556;2023-10-13T07:40:01;7.40;99.90
11005;DHT22;5555;59.622;16.556;2023-10-13T07:42:36;7.40;99.90
11005;DHT22;5555;59.622;16.556;2023-10-13T07:45:06;7.50;99.90
11005;DHT22;5555;59.622;16.556;2023-10-13T07:47:31;7.50;99.90
11005;DHT22;5555;59.622;16.556;2023-10-13T07:49:59;7.50;99.90
11005;DHT22;5555;59.622;16.556;2023-10-13T07:52:24;7.60;99.90
11005;DHT22;5555;59.622;16.556;2023-10-13T07:55:01;7.60;99.90
11005;DHT22;5555;59.622;16.556;2023-10-13T07:57:36;7.70;99.90
11005;DHT22;5555;59.622;16.556;2023-10-13T08:00:18;7.80;99.90
11005;DHT22;5555;59.622;16.556;2023-10-13T08:03:03;7.90;99.90
11005;DHT22;5555;59.622;16.556;2023-10-13T08:05:42;8.00;99.90
11005;DHT22;5555;59.622;16.556;2023-10-13T08:08:26;8.10;99.90
11005;DHT22;5555;59.622;16.556;2023-10-13T08:11:01;8.20;99.90
11005;DHT22;5555;59.622;16.556;2023-10-13T08:13:35;8.20;99.90
11005;DHT22;5555;59.622;16.556;2023-10-13T08:16:03;8.30;99.90
11005;DHT22;5555;59.622;16.556;2023-10-13T08:18:35;8.40;99.90
11005;DHT22;5555;59.622;16.556;2023-10-13T08:21:02;8.50;99.90
11005;DHT22;5555;59.622;16.556;2023-10-13T08:23:41;8.70;99.90
11005;DHT22;5555;59.622;16.556;2023-10-13T08:26:20;8.70;99.90
11005;DHT22;5555;59.622;16.556;2023-10-13T08:29:02;8.80;99.90
11005;DHT22;5555;59.622;16.556;2023-10-13T08:31:55;8.80;99.90
11005;DHT22;5555;59.622;16.556;2023-10-13T08:34:33;9.00;99.90
11005;DHT22;5555;59.622;16.556;2023-10-13T08:37:10;9.10;99.90
11005;DHT22;5555;59.622;16.556;2023-10-13T08:39:48;9.30;99.90
11005;DHT22;5555;59.622;16.556;2023-10-13T08:47:47;9.50;99.90
11005;DHT22;5555;59.622;16.556;2023-10-13T08:50:21;9.50;99.90
11005;DHT22;5555;59.622;16.556;2023-10-13T08:53:06;9.50;99.90
11005;DHT22;5555;59.622;16.556;2023-10-13T08:58:48;9.60;99.90
11005;DHT22;5555;59.622;16.556;2023-10-13T09:01:31;9.80;99.90
11005;DHT22;5555;59.622;16.556;2023-10-13T09:04:10;9.80;99.90
11005;DHT22;5555;59.622;16.556;2023-10-13T09:14:39;10.00;99.90
11005;DHT22;5555;59.622;16.556;2023-10-13T09:17:13;9.90;99.90
11005;DHT22;5555;59.622;16.556;2023-10-13T09:19:45;10.10;99.90
11005;DHT22;5555;59.622;16.556;2023-10-13T09:22:26;10.30;99.90
11005;DHT22;5555;59.622;16.556;2023-10-13T09:25:04;10.20;99.90
11005;DHT22;5555;59.622;16.556;2023-10-13T09:27:32;10.20;99.90
11005;DHT22;5555;59.622;16.556;2023-10-13T09:30:03;10.20;99.90
11005;DHT22;5555;59.622;16.556;2023-10-13T09:32:44;10.30;99.90
11005;DHT22;5555;59.622;16.556;2023-10-13T09:35:23;10.00;99.90
11005;DHT22;5555;59.622;16.556;2023-10-13T09:37:53;10.10;99.90
11005;DHT22;5555;59.622;16.556;2023-10-13T09:40:22;10.20;99.90
11005;DHT22;5555;59.622;16.556;2023-10-13T09:43:03;10.30;99.90
11005;DHT22;5555;59.622;16.556;2023-10-13T09:45:41;10.50;99.90
11005;DHT22;5555;59.622;16.556;2023-10-13T09:48:25;10.70;99.90
11005;DHT22;5555;59.622;16.556;2023-10-13T09:50:57;10.80;99.90
11005;DHT22;5555;59.622;16.556;2023-10-13T09:53:24;10.90;99.90
11005;DHT22;5555;59.622;16.556;2023-10-13T10:01:28;11.40;99.90
11005;DHT22;5555;59.622;16.556;2023-10-13T10:04:11;11.30;99.90
11005;DHT22;5555;59.622;16.556;2023-10-13T10:06:55;11.60;99.90
11005;DHT22;5555;59.622;16.556;2023-10-13T10:09:33;11.70;99.90
11005;DHT22;5555;59.622;16.556;2023-10-13T10:12:31;11.80;99.90
11005;DHT22;5555;59.622;16.556;2023-10-13T10:17:41;11.70;99.90
11005;DHT22;5555;59.622;16.556;2023-10-13T10:20:08;11.70;99.90
11005;DHT22;5555;59.622;16.556;2023-10-13T10:22:41;11.90;99.90
11005;DHT22;5555;59.622;16.556;2023-10-13T10:25:14;11.90;99.90
11005;DHT22;5555;59.622;16.556;2023-10-13T10:27:56;12.20;99.90
11005;DHT22;5555;59.622;16.556;2023-10-13T10:30:27;12.50;99.90
11005;DHT22;5555;59.622;16.556;2023-10-13T10:32:57;12.60;99.90
11005;DHT22;5555;59.622;16.556;2023-10-13T10:35:26;12.30;99.90
11005;DHT22;5555;59.622;16.556;2023-10-13T10:37:56;12.40;99.90
11005;DHT22;5555;59.622;16.556;2023-10-13T10:40:49;12.50;99.90
11005;DHT22;5555;59.622;16.556;2023-10-13T10:43:38;12.60;99.90
11005;DHT22;5555;59.622;16.556;2023-10-13T10:46:15;12.40;99.90
11005;DHT22;5555;59.622;16.556;2023-10-13T10:48:41;12.50;99.90
11005;DHT22;5555;59.622;16.556;2023-10-13T10:51:11;12.40;99.90
11005;DHT22;5555;59.622;16.556;2023-10-13T10:53:49;12.30;99.90
11005;DHT22;5555;59.622;16.556;2023-10-13T10:56:17;12.40;99.90
11005;DHT22;5555;59.622;16.556;2023-10-13T10:58:56;12.40;99.90
11005;DHT22;5555;59.622;16.556;2023-10-13T11:01:23;12.40;99.90
11005;DHT22;5555;59.622;16.556;2023-10-13T11:03:58;12.50;99.90
11005;DHT22;5555;59.622;16.556;2023-10-13T11:06:26;12.60;99.90
11005;DHT22;5555;59.622;16.556;2023-10-13T11:09:02;12.90;99.90
11005;DHT22;5555;59.622;16.556;2023-10-13T11:11:30;12.90;99.90
11005;DHT22;5555;59.622;16.556;2023-10-13T11:14:02;13.20;99.90
11005;DHT22;5555;59.622;16.556;2023-10-13T11:16:47;13.20;99.90
11005;DHT22;5555;59.622;16.556;2023-10-13T11:19:17;13.20;99.90
11005;DHT22;5555;59.622;16.556;2023-10-13T11:21:46;13.40;99.90
11005;DHT22;5555;59.622;16.556;2023-10-13T11:24:13;13.10;99.90
11005;DHT22;5555;59.622;16.556;2023-10-13T11:26:38;13.20;99.90
11005;DHT22;5555;59.622;16.556;2023-10-13T11:29:19;13.10;99.90
11005;DHT22;5555;59.622;16.556;2023-10-13T11:31:48;12.90;99.90
11005;DHT22;5555;59.622;16.556;2023-10-13T11:34:20;13.30;99.90
11005;DHT22;5555;59.622;16.556;2023-10-13T11:36:46;13.50;99.90
11005;DHT22;5555;59.622;16.556;2023-10-13T11:39:11;13.30;99.90
11005;DHT22;5555;59.622;16.556;2023-10-13T11:41:43;13.20;99.90
11005;DHT22;5555;59.622;16.556;2023-10-13T11:44:19;13.20;99.90
11005;DHT22;5555;59.622;16.556;2023-10-13T11:46:44;13.20;99.90
11005;DHT22;5555;59.622;16.556;2023-10-13T11:49:13;13.10;99.90
11005;DHT22;5555;59.622;16.556;2023-10-13T11:54:18;13.20;99.90
11005;DHT22;5555;59.622;16.556;2023-10-13T11:56:48;13.20;99.90
11005;DHT22;5555;59.622;16.556;2023-10-13T11:59:14;13.50;99.90
11005;DHT22;5555;59.622;16.556;2023-10-13T12:04:30;13.60;99.90
11005;DHT22;5555;59.622;16.556;2023-10-13T12:07:14;13.40;99.90
11005;DHT22;5555;59.622;16.556;2023-10-13T12:09:43;13.60;99.90
11005;DHT22;5555;59.622;16.556;2023-10-13T12:12:27;13.80;99.90
11005;DHT22;5555;59.622;16.556;2023-10-13T12:14:54;13.90;99.90
11005;DHT22;5555;59.622;16.556;2023-10-13T12:17:29;13.90;99.90
11005;DHT22;5555;59.622;16.556;2023-10-13T12:20:00;13.80;99.90
11005;DHT22;5555;59.622;16.556;2023-10-13T12:22:30;13.70;99.90
11005;DHT22;5555;59.622;16.556;2023-10-13T12:25:05;13.40;99.90
11005;DHT22;5555;59.622;16.556;2023-10-13T12:27:45;13.10;99.90
11005;DHT22;5555;59.622;16.556;2023-10-13T12:30:13;13.00;99.90
11005;DHT22;5555;59.622;16.556;2023-10-13T12:32:42;12.70;99.90
11005;DHT22;5555;59.622;16.556;2023-10-13T12:35:19;12.80;99.90
11005;DHT22;5555;59.622;16.556;2023-10-13T12:38:01;12.60;99.90
11005;DHT22;5555;59.622;16.556;2023-10-13T12:40:52;12.80;99.90
11005;DHT22;5555;59.622;16.556;2023-10-13T12:43:49;12.90;99.90
11005;DHT22;5555;59.622;16.556;2023-10-13T12:46:34;12.80;99.90
11005;DHT22;5555;59.622;16.556;2023-10-13T12:49:18;12.80;99.90
11005;DHT22;5555;59.622;16.556;2023-10-13T12:52:02;12.80;99.90
11005;DHT22;5555;59.622;16.556;2023-10-13T12:54:28;13.00;99.90
11005;DHT22;5555;59.622;16.556;2023-10-13T12:57:01;13.30;99.90
11005;DHT22;5555;59.622;16.556;2023-10-13T12:59:26;13.50;99.90
11005;DHT22;5555;59.622;16.556;2023-10-13T13:01:52;13.50;99.90
11005;DHT22;5555;59.622;16.556;2023-10-13T13:04:19;13.50;99.90
11005;DHT22;5555;59.622;16.556;2023-10-13T13:06:46;13.60;99.90
11005;DHT22;5555;59.622;16.556;2023-10-13T13:09:12;13.40;99.90
11005;DHT22;5555;59.622;16.556;2023-10-13T13:11:38;13.20;99.90
11005;DHT22;5555;59.622;16.556;2023-10-13T13:14:06;13.10;99.90
11005;DHT22;5555;59.622;16.556;2023-10-13T13:16:33;13.20;99.90
11005;DHT22;5555;59.622;16.556;2023-10-13T13:18:59;13.00;99.90
11005;DHT22;5555;59.622;16.556;2023-10-13T13:21:29;12.80;99.90
11005;DHT22;5555;59.622;16.556;2023-10-13T13:23:54;12.80;99.90
11005;DHT22;5555;59.622;16.556;2023-10-13T13:26:21;12.60;99.90
11005;DHT22;5555;59.622;16.556;2023-10-13T13:28:47;12.40;99.90
11005;DHT22;5555;59.622;16.556;2023-10-13T13:31:17;12.20;99.90
11005;DHT22;5555;59.622;16.556;2023-10-13T13:33:42;12.10;99.90
11005;DHT22;5555;59.622;16.556;2023-10-13T13:36:11;12.10;99.90
11005;DHT22;5555;59.622;16.556;2023-10-13T13:38:41;12.00;99.90
11005;DHT22;5555;59.622;16.556;2023-10-13T13:41:13;12.00;99.90
11005;DHT22;5555;59.622;16.556;2023-10-13T13:43:45;12.00;99.90
11005;DHT22;5555;59.622;16.556;2023-10-13T13:46:21;11.90;99.90
11005;DHT22;5555;59.622;16.556;2023-10-13T13:48:59;12.00;99.90
11005;DHT22;5555;59.622;16.556;2023-10-13T13:51:29;12.00;99.90
11005;DHT22;5555;59.622;16.556;2023-10-13T13:53:56;11.90;99.90
11005;DHT22;5555;59.622;16.556;2023-10-13T13:56:22;11.90;99.90
11005;DHT22;5555;59.622;16.556;2023-10-13T13:58:51;11.90;99.90
11005;DHT22;5555;59.622;16.556;2023-10-13T14:01:19;11.70;99.90
11005;DHT22;5555;59.622;16.556;2023-10-13T14:03:48;11.60;99.90
11005;DHT22;5555;59.622;16.556;2023-10-13T14:06:17;11.50;99.90
11005;DHT22;5555;59.622;16.556;2023-10-13T14:08:49;11.60;99.90
11005;DHT22;5555;59.622;16.556;2023-10-13T14:11:17;11.50;99.90
11005;DHT22;5555;59.622;16.556;2023-10-13T14:14:01;11.50;99.90
11005;DHT22;5555;59.622;16.556;2023-10-13T14:16:30;11.40;99.90
11005;DHT22;5555;59.622;16.556;2023-10-13T14:18:57;11.30;99.90
11005;DHT22;5555;59.622;16.556;2023-10-13T14:21:23;11.30;99.90
11005;DHT22;5555;59.622;16.556;2023-10-13T14:23:50;11.30;99.90
11005;DHT22;5555;59.622;16.556;2023-10-13T14:26:20;11.30;99.90
11005;DHT22;5555;59.622;16.556;2023-10-13T14:28:47;11.30;99.90
11005;DHT22;5555;59.622;16.556;2023-10-13T14:31:32;11.20;99.90
11005;DHT22;5555;59.622;16.556;2023-10-13T14:33:58;11.10;99.90
11005;DHT22;5555;59.622;16.556;2023-10-13T14:36:24;11.10;99.90
11005;DHT22;5555;59.622;16.556;2023-10-13T14:38:54;11.10;99.90
11005;DHT22;5555;59.622;16.556;2023-10-13T14:41:21;11.00;99.90
11005;DHT22;5555;59.622;16.556;2023-10-13T14:43:46;10.90;99.90
11005;DHT22;5555;59.622;16.556;2023-10-13T14:46:19;10.90;99.90
11005;DHT22;5555;59.622;16.556;2023-10-13T14:48:54;10.90;99.90
11005;DHT22;5555;59.622;16.556;2023-10-13T14:51:21;10.90;99.90
11005;DHT22;5555;59.622;16.556;2023-10-13T14:53:47;10.80;99.90
11005;DHT22;5555;59.622;16.556;2023-10-13T14:56:14;10.80;99.90
11005;DHT22;5555;59.622;16.556;2023-10-13T14:58:40;10.80;99.90
11005;DHT22;5555;59.622;16.556;2023-10-13T15:01:15;10.80;99.90
11005;DHT22;5555;59.622;16.556;2023-10-13T15:03:45;10.70;99.90
11005;DHT22;5555;59.622;16.556;2023-10-13T15:06:21;10.70;99.90
11005;DHT22;5555;59.622;16.556;2023-10-13T15:08:51;10.70;99.90
11005;DHT22;5555;59.622;16.556;2023-10-13T15:11:17;10.60;99.90
11005;DHT22;5555;59.622;16.556;2023-10-13T15:13:45;10.60;99.90
11005;DHT22;5555;59.622;16.556;2023-10-13T15:16:18;10.60;99.90
11005;DHT22;5555;59.622;16.556;2023-10-13T15:18:45;10.60;99.90
11005;DHT22;5555;59.622;16.556;2023-10-13T15:21:18;10.50;99.90
11005;DHT22;5555;59.622;16.556;2023-10-13T15:23:44;10.50;99.90
11005;DHT22;5555;59.622;16.556;2023-10-13T15:26:10;10.40;99.90
11005;DHT22;5555;59.622;16.556;2023-10-13T15:28:40;10.40;99.90
11005;DHT22;5555;59.622;16.556;2023-10-13T15:31:17;10.40;99.90
11005;DHT22;5555;59.622;16.556;2023-10-13T15:34:05;10.40;99.90
11005;DHT22;5555;59.622;16.556;2023-10-13T15:36:41;10.30;99.90
11005;DHT22;5555;59.622;16.556;2023-10-13T15:39:11;10.20;99.90
11005;DHT22;5555;59.622;16.556;2023-10-13T15:41:37;10.00;99.90
11005;DHT22;5555;59.622;16.556;2023-10-13T15:44:10;9.80;99.90
11005;DHT22;5555;59.622;16.556;2023-10-13T15:46:36;9.80;99.90
11005;DHT22;5555;59.622;16.556;2023-10-13T15:49:03;9.60;99.90
11005;DHT22;5555;59.622;16.556;2023-10-13T15:51:32;9.40;99.90
11005;DHT22;5555;59.622;16.556;2023-10-13T15:53:59;9.20;99.90
11005;DHT22;5555;59.622;16.556;2023-10-13T15:56:28;9.10;99.90
11005;DHT22;5555;59.622;16.556;2023-10-13T15:58:58;9.00;99.90
11005;DHT22;5555;59.622;16.556;2023-10-13T16:01:26;8.90;99.90
11005;DHT22;5555;59.622;16.556;2023-10-13T16:03:52;8.80;99.90
11005;DHT22;5555;59.622;16.556;2023-10-13T16:06:18;8.70;99.90
11005;DHT22;5555;59.622;16.556;2023-10-13T16:08:45;8.60;99.90
11005;DHT22;5555;59.622;16.556;2023-10-13T16:11:14;8.60;99.90
11005;DHT22;5555;59.622;16.556;2023-10-13T16:13:43;8.50;99.90
11005;DHT22;5555;59.622;16.556;2023-10-13T16:16:22;8.50;99.90
11005;DHT22;5555;59.622;16.556;2023-10-13T16:18:49;8.40;99.90
11005;DHT22;5555;59.622;16.556;2023-10-13T16:21:15;8.30;99.90
11005;DHT22;5555;59.622;16.556;2023-10-13T16:23:42;8.30;99.90
11005;DHT22;5555;59.622;16.556;2023-10-13T16:26:11;8.20;99.90
11005;DHT22;5555;59.622;16.556;2023-10-13T16:28:37;8.10;99.90
11005;DHT22;5555;59.622;16.556;2023-10-13T16:31:07;8.00;99.90
11005;DHT22;5555;59.622;16.556;2023-10-13T16:33:37;8.00;99.90
11005;DHT22;5555;59.622;16.556;2023-10-13T16:36:05;8.00;99.90
11005;DHT22;5555;59.622;16.556;2023-10-13T16:38:34;7.90;99.90
11005;DHT22;5555;59.622;16.556;2023-10-13T16:41:01;7.90;99.90
11005;DHT22;5555;59.622;16.556;2023-10-13T16:43:34;7.80;99.90
11005;DHT22;5555;59.622;16.556;2023-10-13T16:46:04;7.80;99.90
11005;DHT22;5555;59.622;16.556;2023-10-13T16:48:32;7.80;99.90
11005;DHT22;5555;59.622;16.556;2023-10-13T16:51:01;7.80;99.90
11005;DHT22;5555;59.622;16.556;2023-10-13T16:53:27;7.70;99.90
11005;DHT22;5555;59.622;16.556;2023-10-13T16:55:53;7.80;99.90